METAR KZZZ 200750Z 30006KT BR BKN070 OVC080 M04/M07 A2986 RMK SLP110 T10441067 11033 21144 56023 410281144